createdAt,value
2023-02-23T00:01:37.121Z,78.76
2023-02-23T00:04:04.646Z,78.25
2023-02-23T00:06:33.154Z,77.86
2023-02-23T00:09:01.205Z,77.43
2023-02-23T00:11:28.514Z,77.03
2023-02-23T00:13:56.910Z,76.85
2023-02-23T00:16:26.051Z,76.68
2023-02-23T00:18:55.389Z,77.18
2023-02-23T00:21:29.939Z,76.56
2023-02-23T00:23:59.002Z,76.42
2023-02-23T00:26:30.809Z,77.00
2023-02-23T00:28:58.290Z,77.64
2023-02-23T00:31:27.279Z,77.94
2023-02-23T00:33:56.214Z,77.33
2023-02-23T00:36:26.256Z,76.43
2023-02-23T00:38:58.123Z,76.69
2023-02-23T00:41:30.785Z,76.72
2023-02-23T00:44:00.603Z,76.91
2023-02-23T00:46:29.930Z,76.52
2023-02-23T00:49:00.119Z,76.49
2023-02-23T00:51:31.012Z,77.00
2023-02-23T00:54:00.405Z,77.04
2023-02-23T00:56:27.930Z,77.09
2023-02-23T00:58:55.150Z,77.65
2023-02-23T01:01:25.627Z,77.88
2023-02-23T01:03:55.491Z,77.28
2023-02-23T01:06:22.750Z,77.73
2023-02-23T01:08:56.606Z,77.35
2023-02-23T01:11:30.930Z,78.37
2023-02-23T01:14:00.014Z,77.93
2023-02-23T01:16:30.231Z,78.31
2023-02-23T01:19:00.036Z,78.05
2023-02-23T01:21:29.867Z,78.64
2023-02-23T01:23:57.100Z,78.85
2023-02-23T01:26:34.015Z,78.13
2023-02-23T01:29:05.845Z,78.45
2023-02-23T01:31:34.114Z,78.61
2023-02-23T01:34:03.081Z,79.00
2023-02-23T01:36:37.124Z,78.58
2023-02-23T01:39:11.992Z,78.87
2023-02-23T01:41:42.364Z,78.71
2023-02-23T01:44:15.405Z,79.43
2023-02-23T01:46:45.227Z,80.11
2023-02-23T01:49:22.358Z,80.18
2023-02-23T01:51:55.551Z,79.60
2023-02-23T01:54:28.943Z,79.29
2023-02-23T01:56:58.763Z,79.37
2023-02-23T01:59:49.179Z,79.87
2023-02-23T02:02:22.148Z,79.35
2023-02-23T02:04:52.309Z,78.91
2023-02-23T02:07:25.828Z,78.35
2023-02-23T02:10:10.838Z,79.41
2023-02-23T02:12:51.981Z,79.48
2023-02-23T02:15:20.812Z,78.24
2023-02-23T02:17:47.448Z,78.31
2023-02-23T02:20:33.220Z,79.05
2023-02-23T02:23:36.533Z,79.01
2023-02-23T02:26:41.364Z,79.28
2023-02-23T02:29:20.279Z,79.61
2023-02-23T02:32:07.903Z,78.93
2023-02-23T02:34:46.795Z,79.66
2023-02-23T02:37:35.292Z,80.27
2023-02-23T02:40:17.193Z,79.97
2023-02-23T02:43:12.390Z,80.30
2023-02-23T02:45:57.094Z,79.85
2023-02-23T02:48:46.643Z,79.90
2023-02-23T02:51:31.532Z,79.59
2023-02-23T02:54:08.776Z,79.03
2023-02-23T02:56:40.373Z,79.09
2023-02-23T02:59:31.068Z,79.40
2023-02-23T03:02:17.302Z,80.29
2023-02-23T03:05:02.846Z,79.64
2023-02-23T03:07:55.687Z,80.54
2023-02-23T03:10:54.675Z,80.13
2023-02-23T03:13:49.260Z,80.15
2023-02-23T03:16:45.519Z,79.81
2023-02-23T03:19:42.796Z,79.45
2023-02-23T03:23:03.096Z,79.89
2023-02-23T03:26:04.199Z,79.65
2023-02-23T03:28:59.540Z,78.93
2023-02-23T03:31:56.092Z,78.53
2023-02-23T03:34:56.254Z,77.98
2023-02-23T03:37:57.065Z,77.65
2023-02-23T03:40:47.893Z,77.46
2023-02-23T03:43:40.704Z,77.24
2023-02-23T03:46:30.043Z,77.42
2023-02-23T03:49:19.031Z,77.44
2023-02-23T03:52:09.171Z,76.74
2023-02-23T03:55:03.066Z,76.06
2023-02-23T03:57:53.619Z,76.08
2023-02-23T04:00:47.128Z,76.21
2023-02-23T04:03:35.678Z,76.71
2023-02-23T04:06:23.094Z,76.63
2023-02-23T04:09:10.090Z,76.22
2023-02-23T04:12:40.733Z,76.77
2023-02-23T04:15:10.802Z,76.48
2023-02-23T04:17:37.626Z,76.77
2023-02-23T04:20:04.607Z,76.71
2023-02-23T04:22:31.346Z,77.20
2023-02-23T04:24:58.162Z,77.72
2023-02-23T04:27:24.832Z,76.99
2023-02-23T04:29:51.629Z,76.56
2023-02-23T04:32:20.804Z,75.88
2023-02-23T04:34:47.592Z,75.67
2023-02-23T04:37:14.585Z,75.42
2023-02-23T04:39:42.847Z,74.41
2023-02-23T04:42:10.148Z,74.02
2023-02-23T04:44:36.799Z,73.83
2023-02-23T04:47:04.062Z,72.63
2023-02-23T04:49:30.885Z,72.36
2023-02-23T04:51:57.539Z,72.62
2023-02-23T04:54:24.214Z,73.50
2023-02-23T04:56:50.970Z,74.19
2023-02-23T04:59:18.418Z,73.66
2023-02-23T05:01:45.328Z,73.46
2023-02-23T05:04:12.401Z,74.19
2023-02-23T05:06:39.214Z,74.96
2023-02-23T05:09:06.922Z,75.03
2023-02-23T05:11:33.622Z,75.81
2023-02-23T05:14:00.408Z,75.97
2023-02-23T05:16:27.940Z,75.89
2023-02-23T05:18:54.643Z,76.19
2023-02-23T05:21:21.407Z,75.87
2023-02-23T05:23:48.452Z,75.66
2023-02-23T05:26:15.457Z,75.22
2023-02-23T05:28:42.967Z,74.94
2023-02-23T05:31:11.103Z,74.26
2023-02-23T05:33:42.394Z,74.37
2023-02-23T05:36:14.129Z,74.15
2023-02-23T05:38:40.928Z,73.71
2023-02-23T05:41:09.370Z,73.72
2023-02-23T05:43:36.247Z,72.74
2023-02-23T05:46:07.957Z,72.94
2023-02-23T05:48:35.020Z,73.01
2023-02-23T05:51:07.867Z,73.04
2023-02-23T05:53:35.211Z,73.09
2023-02-23T05:56:04.028Z,72.64
2023-02-23T05:58:31.512Z,73.05
2023-02-23T06:00:58.301Z,73.47
2023-02-23T06:03:24.989Z,72.92
2023-02-23T06:05:57.550Z,73.24
2023-02-23T06:08:25.585Z,73.90
2023-02-23T06:10:53.300Z,74.01
2023-02-23T06:13:21.245Z,74.13
2023-02-23T06:15:49.319Z,74.01
2023-02-23T06:18:17.532Z,74.09
2023-02-23T06:20:45.800Z,73.91
2023-02-23T06:23:12.996Z,74.50
2023-02-23T06:25:40.388Z,73.91
2023-02-23T06:28:10.551Z,74.62
2023-02-23T06:30:38.983Z,74.39
2023-02-23T06:33:06.893Z,73.99
2023-02-23T06:35:34.802Z,74.06
2023-02-23T06:38:02.560Z,73.76
2023-02-23T06:40:29.269Z,73.93
2023-02-23T06:42:55.982Z,74.30
2023-02-23T06:45:22.815Z,74.93
2023-02-23T06:47:49.610Z,75.38
2023-02-23T06:50:16.955Z,76.02
2023-02-23T06:52:43.559Z,75.77
2023-02-23T06:55:10.292Z,75.34
2023-02-23T06:57:36.981Z,74.52
2023-02-23T07:00:04.838Z,74.91
2023-02-23T07:02:31.766Z,74.58
2023-02-23T07:04:58.937Z,74.44
2023-02-23T07:07:25.698Z,73.87
2023-02-23T07:09:52.332Z,73.26
2023-02-23T07:12:19.508Z,73.04
2023-02-23T07:14:46.317Z,72.26
2023-02-23T07:17:13.091Z,71.19
2023-02-23T07:19:39.950Z,71.30
2023-02-23T07:22:06.621Z,70.81
2023-02-23T07:24:33.277Z,70.05
2023-02-23T07:26:59.933Z,69.40
2023-02-23T07:29:28.131Z,69.37
2023-02-23T07:31:55.383Z,69.95
2023-02-23T07:34:22.425Z,70.35
2023-02-23T07:36:49.290Z,69.55
2023-02-23T07:39:16.027Z,68.06
2023-02-23T07:41:42.719Z,67.43
2023-02-23T07:44:18.291Z,66.58
2023-02-23T07:46:46.387Z,65.74
2023-02-23T07:49:13.861Z,64.40
2023-02-23T07:51:41.020Z,63.65
2023-02-23T07:54:07.742Z,62.73
2023-02-23T07:56:35.400Z,60.98
2023-02-23T07:59:02.618Z,59.60
2023-02-23T08:01:29.360Z,58.22
2023-02-23T08:03:56.033Z,55.39
2023-02-23T08:06:22.711Z,53.27
2023-02-23T08:08:49.319Z,52.64
2023-02-23T08:11:16.047Z,53.05
2023-02-23T08:13:43.045Z,53.15
2023-02-23T08:16:09.798Z,53.34
2023-02-23T08:18:36.484Z,53.17
2023-02-23T08:21:04.841Z,52.79
2023-02-23T08:23:33.289Z,51.77
2023-02-23T08:26:01.300Z,51.65
2023-02-23T08:28:29.069Z,52.76
2023-02-23T08:30:55.795Z,53.94
2023-02-23T08:33:22.973Z,56.79
2023-02-23T08:35:49.655Z,58.42
2023-02-23T08:38:18.275Z,58.25
2023-02-23T08:40:45.311Z,59.88
2023-02-23T08:43:12.057Z,59.74
2023-02-23T08:45:39.542Z,60.80
2023-02-23T08:48:07.704Z,60.77
2023-02-23T08:50:34.602Z,60.79
2023-02-23T08:53:01.368Z,61.61
2023-02-23T08:55:28.021Z,61.52
2023-02-23T08:57:54.692Z,58.99
2023-02-23T09:00:21.805Z,58.30
2023-02-23T09:02:48.548Z,58.70
2023-02-23T09:05:15.935Z,59.00
2023-02-23T09:07:46.555Z,59.45
2023-02-23T09:10:20.191Z,60.89
2023-02-23T09:12:46.936Z,61.91
2023-02-23T09:15:13.808Z,61.93
2023-02-23T09:17:42.872Z,61.55
2023-02-23T09:20:13.489Z,61.92
2023-02-23T09:22:41.961Z,61.17
2023-02-23T09:25:10.374Z,60.79
2023-02-23T09:27:37.046Z,60.21
2023-02-23T09:30:04.462Z,60.54
2023-02-23T09:32:31.229Z,60.60
2023-02-23T09:34:58.049Z,60.60
2023-02-23T09:37:25.112Z,60.18
2023-02-23T09:39:51.857Z,60.10
2023-02-23T09:42:41.562Z,59.31
2023-02-23T09:45:27.103Z,59.89
2023-02-23T09:48:12.429Z,59.03
2023-02-23T09:50:42.076Z,58.89
2023-02-23T09:53:40.594Z,58.38
2023-02-23T09:56:14.239Z,57.44
2023-02-23T09:58:41.243Z,58.06
2023-02-23T10:01:27.254Z,57.81
2023-02-23T10:04:06.090Z,57.08
2023-02-23T10:06:34.522Z,56.36
2023-02-23T10:09:34.243Z,56.76
2023-02-23T10:12:00.868Z,56.28
2023-02-23T10:14:50.717Z,55.60
2023-02-23T10:17:17.574Z,55.87
2023-02-23T10:19:50.656Z,56.08
2023-02-23T10:22:19.623Z,56.24
2023-02-23T10:24:54.238Z,55.83
2023-02-23T10:27:23.482Z,54.80
2023-02-23T10:29:56.432Z,54.87
2023-02-23T10:32:50.927Z,56.29
2023-02-23T10:35:21.036Z,57.03
2023-02-23T10:37:49.094Z,56.76
2023-02-23T10:40:25.363Z,56.52
2023-02-23T10:42:52.741Z,55.75
2023-02-23T10:45:23.301Z,56.71
2023-02-23T10:47:53.142Z,56.95
2023-02-23T10:50:22.531Z,56.78
2023-02-23T10:52:52.658Z,55.74
2023-02-23T10:55:31.689Z,55.55
2023-02-23T10:58:04.554Z,57.21
2023-02-23T11:00:34.303Z,57.66
2023-02-23T11:03:03.231Z,58.51
2023-02-23T11:05:50.404Z,58.48
2023-02-23T11:08:31.599Z,58.56
2023-02-23T11:11:03.961Z,58.07
2023-02-23T11:13:40.104Z,57.79
2023-02-23T11:16:07.108Z,57.10
2023-02-23T11:18:33.949Z,57.38
2023-02-23T11:21:00.749Z,57.37
2023-02-23T11:23:35.797Z,57.56
2023-02-23T11:26:06.244Z,57.71
2023-02-23T11:28:41.641Z,59.08
2023-02-23T11:31:19.198Z,58.57
2023-02-23T11:33:47.220Z,58.48
2023-02-23T11:36:24.526Z,58.55
2023-02-23T11:39:23.474Z,58.90
2023-02-23T11:42:22.101Z,58.76
2023-02-23T11:45:03.216Z,58.35
2023-02-23T11:47:31.714Z,57.85
2023-02-23T11:49:59.412Z,57.83
2023-02-23T11:52:28.011Z,57.17
2023-02-23T11:54:56.628Z,58.89
2023-02-23T11:57:33.902Z,58.28
2023-02-23T12:00:08.666Z,58.25
2023-02-23T12:03:17.432Z,57.96
2023-02-23T12:05:53.189Z,57.70
2023-02-23T12:08:37.698Z,58.23
2023-02-23T12:11:10.396Z,58.42
2023-02-23T12:13:50.875Z,58.59
2023-02-23T12:16:28.788Z,58.28
2023-02-23T12:18:59.450Z,58.73
2023-02-23T12:21:38.091Z,58.75
2023-02-23T12:24:42.174Z,58.09
2023-02-23T12:27:16.404Z,58.88
2023-02-23T12:29:55.410Z,58.95
2023-02-23T12:32:27.924Z,58.50
2023-02-23T12:35:23.992Z,57.89
2023-02-23T12:38:06.578Z,58.19
2023-02-23T12:40:37.353Z,57.49
2023-02-23T12:43:52.837Z,57.02
2023-02-23T12:46:27.790Z,57.40
2023-02-23T12:49:03.130Z,57.90
2023-02-23T12:51:34.453Z,58.64
2023-02-23T12:54:01.720Z,58.22
2023-02-23T12:56:49.989Z,58.15
2023-02-23T12:59:19.242Z,58.08
2023-02-23T13:01:58.598Z,57.68
2023-02-23T13:04:47.165Z,58.13
2023-02-23T13:07:21.995Z,58.37
2023-02-23T13:10:13.064Z,57.55
2023-02-23T13:12:42.804Z,57.73
2023-02-23T13:15:20.089Z,57.43
2023-02-23T13:18:02.800Z,56.95
2023-02-23T13:20:36.978Z,56.57
2023-02-23T13:23:12.724Z,56.60
2023-02-23T13:26:11.499Z,56.32
2023-02-23T13:28:49.103Z,57.25
2023-02-23T13:31:26.475Z,56.47
2023-02-23T13:33:54.968Z,56.35
2023-02-23T13:36:22.465Z,56.05
2023-02-23T13:39:23.540Z,56.25
2023-02-23T13:42:14.445Z,55.31
2023-02-23T13:44:50.452Z,55.27
2023-02-23T13:47:38.679Z,56.12
2023-02-23T13:50:17.552Z,56.52
2023-02-23T13:52:46.305Z,55.71
2023-02-23T13:55:37.230Z,56.34
2023-02-23T13:58:28.717Z,56.04
2023-02-23T14:01:05.378Z,57.28
2023-02-23T14:03:36.652Z,57.80
2023-02-23T14:06:04.226Z,57.86
2023-02-23T14:08:37.437Z,57.64
2023-02-23T14:11:05.763Z,57.35
2023-02-23T14:13:35.091Z,57.28
2023-02-23T14:16:20.065Z,57.89
2023-02-23T14:19:12.301Z,57.41
2023-02-23T14:21:41.994Z,57.07
2023-02-23T14:24:19.396Z,57.08
2023-02-23T14:27:12.070Z,57.37
2023-02-23T14:30:10.886Z,57.06
2023-02-23T14:32:39.750Z,58.02
2023-02-23T14:35:32.230Z,57.60
2023-02-23T14:38:02.015Z,56.90
2023-02-23T14:40:34.795Z,56.89
2023-02-23T14:43:03.584Z,56.58
2023-02-23T14:45:38.773Z,56.55
2023-02-23T14:48:09.887Z,56.65
2023-02-23T14:50:38.978Z,57.11
2023-02-23T14:53:13.783Z,56.95
2023-02-23T14:55:43.328Z,56.15
2023-02-23T14:58:26.746Z,56.30
2023-02-23T15:00:53.428Z,55.29
2023-02-23T15:03:22.275Z,55.67
2023-02-23T15:05:58.662Z,55.89
2023-02-23T15:08:27.993Z,55.18
2023-02-23T15:11:07.329Z,55.24
2023-02-23T15:13:40.387Z,56.26
2023-02-23T15:16:16.288Z,56.41
2023-02-23T15:18:44.653Z,56.31
2023-02-23T15:21:21.207Z,56.58
2023-02-23T15:23:51.647Z,57.35
2023-02-23T15:26:25.457Z,58.31
2023-02-23T15:28:52.541Z,57.80
2023-02-23T15:31:19.859Z,57.80
2023-02-23T15:33:50.649Z,58.06
2023-02-23T15:36:30.816Z,58.28
2023-02-23T15:38:59.838Z,58.08
2023-02-23T15:41:32.464Z,58.50
2023-02-23T15:44:06.510Z,58.64
2023-02-23T15:46:34.253Z,57.99
2023-02-23T15:49:03.524Z,58.00
2023-02-23T15:51:37.626Z,58.21
2023-02-23T15:54:32.656Z,58.06
2023-02-23T15:57:06.220Z,57.83
2023-02-23T15:59:39.114Z,57.74
2023-02-23T16:02:17.884Z,57.86
2023-02-23T16:04:48.754Z,58.17
2023-02-23T16:07:17.134Z,58.31
2023-02-23T16:10:05.543Z,58.37
2023-02-23T16:12:37.157Z,58.52
2023-02-23T16:15:22.908Z,59.00
2023-02-23T16:17:58.322Z,59.56
2023-02-23T16:20:41.424Z,59.60
2023-02-23T16:23:33.430Z,59.05
2023-02-23T16:26:06.715Z,59.76
2023-02-23T16:28:35.798Z,60.36
2023-02-23T16:31:08.451Z,60.42
2023-02-23T16:33:37.876Z,60.47
2023-02-23T16:36:10.906Z,60.42
2023-02-23T16:38:40.341Z,60.89
2023-02-23T16:41:19.475Z,60.98
2023-02-23T16:43:48.889Z,61.05
2023-02-23T16:46:17.469Z,61.45
2023-02-23T16:48:44.437Z,61.70
2023-02-23T16:51:19.972Z,61.74
2023-02-23T16:53:46.675Z,61.81
2023-02-23T16:56:17.427Z,62.32
2023-02-23T16:58:53.656Z,62.47
2023-02-23T17:01:20.814Z,62.35
2023-02-23T17:03:53.043Z,62.59
2023-02-23T17:06:21.721Z,62.83
2023-02-23T17:08:57.675Z,62.95
2023-02-23T17:11:25.345Z,62.86
2023-02-23T17:13:52.060Z,63.25
2023-02-23T17:16:19.672Z,63.22
2023-02-23T17:18:46.642Z,63.29
2023-02-23T17:21:14.343Z,63.44
2023-02-23T17:23:50.762Z,63.49
2023-02-23T17:26:20.068Z,63.43
2023-02-23T17:28:47.298Z,63.59
2023-02-23T17:31:16.106Z,63.58
2023-02-23T17:33:43.657Z,63.76
2023-02-23T17:36:14.085Z,64.19
2023-02-23T17:38:44.480Z,64.16
2023-02-23T17:41:20.407Z,64.33
2023-02-23T17:43:47.474Z,64.50
2023-02-23T17:46:14.594Z,64.56
2023-02-23T17:48:44.605Z,64.41
2023-02-23T17:51:13.036Z,64.94
2023-02-23T17:53:40.456Z,65.05
2023-02-23T17:56:07.698Z,65.29
2023-02-23T17:58:35.015Z,64.82
2023-02-23T18:01:04.703Z,64.97
2023-02-23T18:03:33.207Z,65.00
2023-02-23T18:06:03.804Z,64.89
2023-02-23T18:08:30.691Z,64.76
2023-02-23T18:10:57.768Z,64.73
2023-02-23T18:13:25.697Z,64.61
2023-02-23T18:15:59.779Z,64.62
2023-02-23T18:18:26.640Z,64.50
2023-02-23T18:20:56.325Z,64.66
2023-02-23T18:23:24.412Z,64.84
2023-02-23T18:25:51.116Z,64.80
2023-02-23T18:28:18.431Z,64.63
2023-02-23T18:30:45.557Z,65.16
2023-02-23T18:33:13.072Z,65.25
2023-02-23T18:35:44.725Z,65.42
2023-02-23T18:38:12.715Z,65.60
2023-02-23T18:40:40.101Z,65.78
2023-02-23T18:43:08.105Z,66.06
2023-02-23T18:45:34.777Z,66.07
2023-02-23T18:48:01.408Z,66.27
2023-02-23T18:50:28.364Z,66.30
2023-02-23T18:52:56.359Z,66.31
2023-02-23T18:55:23.843Z,66.28
2023-02-23T18:57:52.580Z,66.26
2023-02-23T19:00:20.314Z,66.45
2023-02-23T19:02:47.749Z,66.72
2023-02-23T19:05:18.114Z,66.92
2023-02-23T19:07:45.629Z,67.03
2023-02-23T19:10:14.873Z,67.05
2023-02-23T19:12:42.087Z,67.12
2023-02-23T19:15:09.353Z,67.35
2023-02-23T19:17:36.241Z,67.35
2023-02-23T19:20:07.959Z,67.37
2023-02-23T19:22:34.849Z,67.45
2023-02-23T19:25:01.584Z,67.47
2023-02-23T19:27:28.303Z,67.54
2023-02-23T19:29:55.115Z,67.81
2023-02-23T19:32:21.957Z,67.61
2023-02-23T19:34:48.801Z,67.34
2023-02-23T19:37:15.462Z,67.43
2023-02-23T19:39:42.101Z,67.36
2023-02-23T19:42:09.127Z,67.57
2023-02-23T19:44:35.852Z,67.51
2023-02-23T19:47:02.533Z,67.40
2023-02-23T19:49:29.444Z,67.30
2023-02-23T19:51:57.725Z,67.52
2023-02-23T19:54:26.063Z,67.54
2023-02-23T19:56:53.081Z,67.39
2023-02-23T19:59:19.875Z,67.61
2023-02-23T20:01:46.589Z,67.67
2023-02-23T20:04:13.296Z,67.87
2023-02-23T20:06:46.846Z,67.84
2023-02-23T20:09:14.661Z,67.79
2023-02-23T20:11:42.548Z,68.07
2023-02-23T20:14:09.910Z,68.02
2023-02-23T20:16:36.852Z,68.04
2023-02-23T20:19:06.383Z,68.02
2023-02-23T20:21:33.873Z,68.26
2023-02-23T20:24:05.551Z,68.39
2023-02-23T20:26:36.871Z,68.39
2023-02-23T20:29:06.781Z,68.29
2023-02-23T20:31:35.545Z,68.14
2023-02-23T20:34:07.745Z,68.70
2023-02-23T20:36:34.395Z,68.45
2023-02-23T20:39:01.097Z,68.47
2023-02-23T20:41:28.748Z,68.20
2023-02-23T20:43:56.080Z,68.35
2023-02-23T20:46:23.015Z,68.22
2023-02-23T20:48:49.760Z,68.32
2023-02-23T20:51:19.068Z,68.17
2023-02-23T20:53:48.044Z,68.23
2023-02-23T20:56:17.922Z,68.26
2023-02-23T20:58:45.320Z,68.23
2023-02-23T21:01:18.289Z,68.38
2023-02-23T21:03:45.126Z,68.66
2023-02-23T21:06:11.831Z,68.75
2023-02-23T21:08:39.920Z,69.30
2023-02-23T21:11:08.762Z,69.52
2023-02-23T21:13:36.341Z,69.67
2023-02-23T21:16:03.358Z,69.40
2023-02-23T21:18:30.791Z,69.75
2023-02-23T21:21:06.690Z,69.17
2023-02-23T21:23:33.325Z,69.70
2023-02-23T21:26:07.023Z,69.69
2023-02-23T21:28:33.819Z,69.87
2023-02-23T21:31:00.495Z,69.13
2023-02-23T21:33:27.242Z,69.33
2023-02-23T21:35:58.556Z,69.06
2023-02-23T21:38:25.846Z,68.79
2023-02-23T21:40:52.686Z,68.80
2023-02-23T21:43:19.462Z,69.13
2023-02-23T21:45:46.690Z,69.24
2023-02-23T21:48:13.882Z,68.56
2023-02-23T21:50:40.625Z,68.87
2023-02-23T21:53:09.258Z,69.21
2023-02-23T21:55:38.557Z,69.13
2023-02-23T21:58:07.086Z,69.21
2023-02-23T22:00:35.643Z,68.90
2023-02-23T22:03:03.420Z,68.95
2023-02-23T22:05:30.360Z,68.89
2023-02-23T22:07:57.008Z,68.51
2023-02-23T22:10:24.173Z,68.19
2023-02-23T22:12:55.851Z,67.83
2023-02-23T22:15:30.073Z,67.70
2023-02-23T22:17:56.859Z,67.66
2023-02-23T22:20:23.497Z,66.94
2023-02-23T22:22:53.082Z,66.82
2023-02-23T22:25:20.347Z,66.40
2023-02-23T22:27:47.360Z,66.13
2023-02-23T22:30:15.249Z,66.33
2023-02-23T22:32:43.058Z,65.83
2023-02-23T22:35:11.102Z,66.21
2023-02-23T22:37:38.665Z,66.06
2023-02-23T22:40:16.422Z,65.60
2023-02-23T22:42:49.626Z,65.62
2023-02-23T22:45:17.912Z,65.45
2023-02-23T22:47:44.783Z,65.63
2023-02-23T22:50:13.986Z,65.72
2023-02-23T22:52:40.749Z,65.76
2023-02-23T22:55:08.000Z,64.94
2023-02-23T22:57:34.794Z,65.05
2023-02-23T23:00:11.338Z,64.63
2023-02-23T23:02:38.048Z,65.05
2023-02-23T23:05:05.131Z,64.67
2023-02-23T23:07:32.273Z,64.99
2023-02-23T23:10:02.348Z,65.18
2023-02-23T23:12:29.055Z,65.09
2023-02-23T23:14:56.555Z,64.69
2023-02-23T23:17:23.306Z,64.83
2023-02-23T23:19:50.100Z,65.31
2023-02-23T23:22:17.397Z,65.06
2023-02-23T23:24:46.010Z,65.41
2023-02-23T23:27:14.508Z,65.45
2023-02-23T23:29:45.587Z,65.43
2023-02-23T23:32:17.227Z,64.92
2023-02-23T23:34:47.888Z,65.03
2023-02-23T23:37:18.902Z,65.45
2023-02-23T23:39:46.069Z,65.37
2023-02-23T23:42:12.907Z,65.42
2023-02-23T23:44:39.577Z,65.26
2023-02-23T23:47:06.475Z,65.13
2023-02-23T23:49:37.855Z,65.48
2023-02-23T23:52:05.971Z,65.91
2023-02-23T23:54:39.133Z,65.82
2023-02-23T23:57:06.588Z,65.72
2023-02-23T23:59:34.945Z,66.05
